createdAt,value
2022-10-07T00:00:27.278Z,8.29
2022-10-07T00:05:27.194Z,8.34
2022-10-07T00:10:27.124Z,8.35
2022-10-07T00:15:27.065Z,8.35
2022-10-07T00:20:26.989Z,8.39
2022-10-07T00:25:26.938Z,8.32
2022-10-07T00:30:26.849Z,8.29
2022-10-07T00:35:26.714Z,8.32
2022-10-07T00:40:26.638Z,8.34
2022-10-07T00:45:26.587Z,8.39
2022-10-07T00:50:26.477Z,8.42
2022-10-07T00:55:26.439Z,8.50
2022-10-07T01:00:26.349Z,8.47
2022-10-07T01:05:26.287Z,8.46
2022-10-07T01:10:26.200Z,8.47
2022-10-07T01:15:26.129Z,8.42
2022-10-07T01:20:26.059Z,8.46
2022-10-07T01:25:25.998Z,8.47
2022-10-07T01:30:25.946Z,8.41
2022-10-07T01:35:25.862Z,8.42
2022-10-07T01:40:25.789Z,8.39
2022-10-07T01:45:25.762Z,8.41
2022-10-07T01:50:25.642Z,8.32
2022-10-07T01:55:25.603Z,8.38
2022-10-07T02:00:25.512Z,8.24
2022-10-07T02:05:25.442Z,8.32
2022-10-07T02:10:25.383Z,8.24
2022-10-07T02:15:25.306Z,8.26
2022-10-07T02:20:25.257Z,8.23
2022-10-07T02:25:25.178Z,8.20
2022-10-07T02:30:25.114Z,8.13
2022-10-07T02:35:25.034Z,8.12
2022-10-07T02:40:24.975Z,8.16
2022-10-07T02:45:26.919Z,8.14
2022-10-07T02:50:24.814Z,8.14
2022-10-07T02:55:24.754Z,8.16
2022-10-07T03:00:24.672Z,8.01
2022-10-07T03:05:24.614Z,8.01
2022-10-07T03:10:24.538Z,8.13
2022-10-07T03:15:24.484Z,8.09
2022-10-07T03:20:24.407Z,8.13
2022-10-07T03:25:24.329Z,8.09
2022-10-07T03:30:24.601Z,8.14
2022-10-07T03:35:24.215Z,8.02
2022-10-07T03:40:24.118Z,8.02
2022-10-07T03:45:24.065Z,8.01
2022-10-07T03:50:23.968Z,7.95
2022-10-07T03:55:23.916Z,7.80
2022-10-07T04:00:23.845Z,7.69
2022-10-07T04:05:23.768Z,7.62
2022-10-07T04:10:23.696Z,7.52
2022-10-07T04:15:23.628Z,7.42
2022-10-07T04:20:23.557Z,7.34
2022-10-07T04:25:23.498Z,7.29
2022-10-07T04:30:23.417Z,7.31
2022-10-07T04:35:23.358Z,7.39
2022-10-07T04:40:23.278Z,7.36
2022-10-07T04:45:23.209Z,7.34
2022-10-07T04:50:23.147Z,7.34
2022-10-07T04:55:23.086Z,7.26
2022-10-07T05:00:22.999Z,7.31
2022-10-07T05:05:22.940Z,7.24
2022-10-07T05:10:22.918Z,7.19
2022-10-07T05:15:22.806Z,7.15
2022-10-07T05:20:22.719Z,7.21
2022-10-07T05:25:22.662Z,7.24
2022-10-07T05:30:22.590Z,7.15
2022-10-07T05:35:22.533Z,7.19
2022-10-07T05:40:22.482Z,7.24
2022-10-07T05:45:22.403Z,7.19
2022-10-07T05:50:22.340Z,7.19
2022-10-07T05:55:22.277Z,7.22
2022-10-07T06:00:22.297Z,7.31
2022-10-07T06:05:22.150Z,7.37
2022-10-07T06:10:22.095Z,7.60
2022-10-07T06:15:22.062Z,7.69
2022-10-07T06:20:21.954Z,7.78
2022-10-07T06:25:21.881Z,7.95
2022-10-07T06:30:22.520Z,8.19
2022-10-07T06:35:21.751Z,8.23
2022-10-07T06:40:21.671Z,8.37
2022-10-07T06:45:21.612Z,8.59
2022-10-07T06:50:21.532Z,8.72
2022-10-07T06:55:21.499Z,8.85
2022-10-07T07:00:21.394Z,9.09
2022-10-07T07:05:21.345Z,9.19
2022-10-07T07:10:21.272Z,9.42
2022-10-07T07:15:21.205Z,9.63
2022-10-07T07:20:21.153Z,9.78
2022-10-07T07:25:21.072Z,9.98
2022-10-07T07:30:21.005Z,10.06
2022-10-07T07:35:20.953Z,10.26
2022-10-07T07:40:20.873Z,10.21
2022-10-07T07:45:20.824Z,10.34
2022-10-07T07:50:20.771Z,10.38
2022-10-07T07:55:20.697Z,10.41
2022-10-07T08:00:20.626Z,10.57
2022-10-07T08:05:23.908Z,10.60
2022-10-07T08:10:20.515Z,10.70
2022-10-07T08:15:20.436Z,10.83
2022-10-07T08:20:20.375Z,10.91
2022-10-07T08:25:20.309Z,10.91
2022-10-07T08:30:20.254Z,10.87
2022-10-07T08:35:20.167Z,11.15
2022-10-07T08:40:20.112Z,11.30
2022-10-07T08:45:20.075Z,11.27
2022-10-07T08:50:20.352Z,11.38
2022-10-07T08:55:19.928Z,11.49
2022-10-07T09:00:19.858Z,11.69
2022-10-07T09:05:19.812Z,11.70
2022-10-07T09:10:19.773Z,12.03
2022-10-07T09:15:19.701Z,12.17
2022-10-07T09:20:19.613Z,12.23
2022-10-07T09:25:19.560Z,12.25
2022-10-07T09:30:19.498Z,12.47
2022-10-07T09:35:19.437Z,12.62
2022-10-07T09:40:19.402Z,12.90
2022-10-07T09:45:19.303Z,13.36
2022-10-07T09:50:19.294Z,13.71
2022-10-07T09:55:19.170Z,14.21
2022-10-07T10:00:19.178Z,14.40
2022-10-07T10:05:19.044Z,14.67
2022-10-07T10:10:19.019Z,14.61
2022-10-07T10:15:18.904Z,14.95
2022-10-07T10:20:18.865Z,15.40
2022-10-07T10:25:18.787Z,15.60
2022-10-07T10:30:18.743Z,15.83
2022-10-07T10:35:18.655Z,15.84
2022-10-07T10:40:19.112Z,15.84
2022-10-07T10:45:18.528Z,15.90
2022-10-07T10:50:18.501Z,15.93
2022-10-07T10:55:18.400Z,16.24
2022-10-07T11:00:18.509Z,16.40
2022-10-07T11:05:18.271Z,16.47
2022-10-07T11:10:18.266Z,16.51
2022-10-07T11:15:18.142Z,16.57
2022-10-07T11:20:18.096Z,16.49
2022-10-07T11:25:18.013Z,16.64
2022-10-07T11:30:17.984Z,16.74
2022-10-07T11:35:17.876Z,16.83
2022-10-07T11:40:17.830Z,16.94
2022-10-07T11:45:17.747Z,17.16
2022-10-07T11:50:17.709Z,17.38
2022-10-07T11:55:17.649Z,17.46
2022-10-07T12:00:17.553Z,17.54
2022-10-07T12:05:17.528Z,17.63
2022-10-07T12:10:17.451Z,17.65
2022-10-07T12:15:17.372Z,17.78
2022-10-07T12:20:17.293Z,17.88
2022-10-07T12:25:17.242Z,18.05
2022-10-07T12:30:17.165Z,18.21
2022-10-07T12:35:17.125Z,18.42
2022-10-07T12:40:17.045Z,18.48
2022-10-07T12:45:16.995Z,18.42
2022-10-07T12:50:16.907Z,18.56
2022-10-07T12:55:16.880Z,18.67
2022-10-07T13:00:16.801Z,18.75
2022-10-07T13:05:16.788Z,18.94
2022-10-07T13:10:16.691Z,18.97
2022-10-07T13:15:16.622Z,18.88
2022-10-07T13:20:16.554Z,18.88
2022-10-07T13:25:16.551Z,18.88
2022-10-07T13:30:16.455Z,18.85
2022-10-07T13:35:16.353Z,19.01
2022-10-07T13:40:16.294Z,18.98
2022-10-07T13:45:16.235Z,19.13
2022-10-07T13:50:16.177Z,19.12
2022-10-07T13:55:16.107Z,19.22
2022-10-07T14:00:16.039Z,19.23
2022-10-07T14:05:15.980Z,19.32
2022-10-07T14:10:15.920Z,19.31
2022-10-07T14:15:15.860Z,19.30
2022-10-07T14:20:15.790Z,19.22
2022-10-07T14:25:15.747Z,19.23
2022-10-07T14:30:15.653Z,19.35
2022-10-07T14:35:15.604Z,19.31
2022-10-07T14:40:15.536Z,19.30
2022-10-07T14:45:15.457Z,19.20
2022-10-07T14:50:15.399Z,19.26
2022-10-07T14:55:15.357Z,19.23
2022-10-07T15:00:15.279Z,19.23
2022-10-07T15:05:15.257Z,19.24
2022-10-07T15:10:15.148Z,19.15
2022-10-07T15:15:15.082Z,19.09
2022-10-07T15:20:15.031Z,19.00
2022-10-07T15:25:14.982Z,18.82
2022-10-07T15:30:14.904Z,18.75
2022-10-07T15:35:14.840Z,18.60
2022-10-07T15:40:14.786Z,18.52
2022-10-07T15:45:14.711Z,18.45
2022-10-07T15:50:14.633Z,18.30
2022-10-07T15:55:14.594Z,18.20
2022-10-07T16:00:14.515Z,18.03
2022-10-07T16:05:14.458Z,17.94
2022-10-07T16:10:14.456Z,17.76
2022-10-07T16:15:14.320Z,17.57
2022-10-07T16:20:14.251Z,17.41
2022-10-07T16:25:14.194Z,17.32
2022-10-07T16:30:14.123Z,17.14
2022-10-07T16:35:14.064Z,16.97
2022-10-07T16:40:13.994Z,16.84
2022-10-07T16:45:13.945Z,16.70
2022-10-07T16:50:13.871Z,16.51
2022-10-07T16:55:13.814Z,16.26
2022-10-07T17:00:13.746Z,16.09
2022-10-07T17:05:13.686Z,15.80
2022-10-07T17:10:14.559Z,15.50
2022-10-07T17:15:13.560Z,15.22
2022-10-07T17:20:13.479Z,14.93
2022-10-07T17:25:13.433Z,14.66
2022-10-07T17:30:13.372Z,14.36
2022-10-07T17:35:13.341Z,14.22
2022-10-07T17:40:13.231Z,14.15
2022-10-07T17:45:13.171Z,13.97
2022-10-07T17:50:13.111Z,13.83
2022-10-07T17:55:13.053Z,13.71
2022-10-07T18:00:13.002Z,13.49
2022-10-07T18:05:12.992Z,13.26
2022-10-07T18:10:12.939Z,13.17
2022-10-07T18:15:12.808Z,13.06
2022-10-07T18:20:15.155Z,13.01
2022-10-07T18:25:12.667Z,12.80
2022-10-07T18:30:12.595Z,12.68
2022-10-07T18:35:12.536Z,12.51
2022-10-07T18:40:12.488Z,12.43
2022-10-07T18:45:12.407Z,12.32
2022-10-07T18:50:12.358Z,12.15
2022-10-07T18:55:12.293Z,11.97
2022-10-07T19:00:12.241Z,11.91
2022-10-07T19:05:12.183Z,11.82
2022-10-07T19:10:12.116Z,11.74
2022-10-07T19:15:12.038Z,11.69
2022-10-07T19:20:11.963Z,11.58
2022-10-07T19:25:11.902Z,11.46
2022-10-07T19:30:11.845Z,11.38
2022-10-07T19:35:11.772Z,11.28
2022-10-07T19:40:11.703Z,11.11
2022-10-07T19:45:11.643Z,10.93
2022-10-07T19:50:11.573Z,10.85
2022-10-07T19:55:11.512Z,10.80
2022-10-07T20:00:11.448Z,10.85
2022-10-07T20:05:11.374Z,10.78
2022-10-07T20:10:11.334Z,10.82
2022-10-07T20:15:11.275Z,10.78
2022-10-07T20:20:11.589Z,10.67
2022-10-07T20:25:11.155Z,10.60
2022-10-07T20:30:15.118Z,10.45
2022-10-07T20:35:12.006Z,10.41
2022-10-07T20:40:10.960Z,10.28
2022-10-07T20:45:10.876Z,10.12
2022-10-07T20:50:10.831Z,10.10
2022-10-07T20:55:10.819Z,10.10
2022-10-07T21:00:10.697Z,10.05
2022-10-07T21:05:10.642Z,10.06
2022-10-07T21:10:10.570Z,10.05
2022-10-07T21:15:10.509Z,10.01
2022-10-07T21:20:10.443Z,10.02
2022-10-07T21:25:10.374Z,9.99
2022-10-07T21:30:10.348Z,9.78
2022-10-07T21:35:10.248Z,9.62
2022-10-07T21:40:10.202Z,9.60
2022-10-07T21:45:10.110Z,9.57
2022-10-07T21:50:10.061Z,9.48
2022-10-07T21:55:09.989Z,9.51
2022-10-07T22:00:09.921Z,9.41
2022-10-07T22:05:09.881Z,9.40
2022-10-07T22:10:09.799Z,9.41
2022-10-07T22:15:09.736Z,9.37
2022-10-07T22:20:09.672Z,9.41
2022-10-07T22:25:09.613Z,9.34
2022-10-07T22:30:09.543Z,9.34
2022-10-07T22:35:09.488Z,9.34
2022-10-07T22:40:09.417Z,9.24
2022-10-07T22:45:09.355Z,9.03
2022-10-07T22:50:09.298Z,8.85
2022-10-07T22:55:09.234Z,8.77
2022-10-07T23:00:09.193Z,8.68
2022-10-07T23:05:09.097Z,8.68
2022-10-07T23:10:09.046Z,8.59
2022-10-07T23:15:08.988Z,8.60
2022-10-07T23:20:08.906Z,8.60
2022-10-07T23:25:08.834Z,8.60
2022-10-07T23:30:09.109Z,8.78
2022-10-07T23:35:08.825Z,8.95
2022-10-07T23:40:08.649Z,9.04
2022-10-07T23:45:08.586Z,9.08
2022-10-07T23:50:08.517Z,9.15
2022-10-07T23:55:08.445Z,9.15
